createdAt,value
2023-04-02T00:00:09.610Z,99342.75
2023-04-02T00:03:15.485Z,99342.75
2023-04-02T00:06:45.040Z,99352.44
2023-04-02T00:09:47.591Z,99323.25
2023-04-02T00:13:05.105Z,99322.94
2023-04-02T00:16:13.378Z,99348.75
2023-04-02T00:19:25.813Z,99315.41
2023-04-02T00:22:32.379Z,99344.41
2023-04-02T00:25:43.039Z,99325.97
2023-04-02T00:28:45.396Z,99341.38
2023-04-02T00:31:51.231Z,99320.19
2023-04-02T00:34:55.171Z,99337.47
2023-04-02T00:37:57.731Z,99308.00
2023-04-02T00:41:04.635Z,99340.81
2023-04-02T00:44:12.601Z,99344.03
2023-04-02T00:47:21.897Z,99339.25
2023-04-02T00:50:31.755Z,99352.28
2023-04-02T00:53:35.492Z,99333.94
2023-04-02T00:56:40.313Z,99348.81
2023-04-02T00:59:53.535Z,99354.47
2023-04-02T01:03:29.128Z,99350.19
2023-04-02T01:06:37.263Z,99351.84
2023-04-02T01:10:12.938Z,99328.22
2023-04-02T01:13:44.606Z,99347.34
2023-04-02T01:17:08.765Z,99355.28
2023-04-02T01:20:33.430Z,99356.81
2023-04-02T01:23:43.853Z,99355.34
2023-04-02T01:26:58.280Z,99354.47
2023-04-02T01:30:03.545Z,99355.28
2023-04-02T01:33:07.250Z,99355.72
2023-04-02T01:36:41.380Z,99349.78
2023-04-02T01:40:09.845Z,99348.97
2023-04-02T01:43:48.005Z,99348.97
2023-04-02T01:46:50.545Z,99358.84
2023-04-02T01:49:58.132Z,99331.31
2023-04-02T01:53:04.157Z,99360.78
2023-04-02T01:56:07.504Z,99361.59
2023-04-02T01:59:11.623Z,99371.72
2023-04-02T02:02:15.446Z,99347.69
2023-04-02T02:05:23.053Z,99345.28
2023-04-02T02:08:50.678Z,99370.84
2023-04-02T02:11:53.392Z,99370.06
2023-04-02T02:14:55.847Z,99375.19
2023-04-02T02:18:02.615Z,99351.25
2023-04-02T02:21:07.903Z,99348.94
2023-04-02T02:24:33.022Z,99356.38
2023-04-02T02:27:53.763Z,99377.94
2023-04-02T02:31:12.898Z,99389.84
2023-04-02T02:34:21.427Z,99392.13
2023-04-02T02:37:32.897Z,99367.63
2023-04-02T02:40:44.124Z,99391.00
2023-04-02T02:43:57.524Z,99353.72
2023-04-02T02:47:30.912Z,99361.97
2023-04-02T02:50:35.393Z,99382.72
2023-04-02T02:53:48.526Z,99363.22
2023-04-02T02:56:57.513Z,99357.72
2023-04-02T03:00:02.535Z,99391.87
2023-04-02T03:03:13.731Z,99343.84
2023-04-02T03:06:17.569Z,99349.34
2023-04-02T03:09:35.133Z,99357.72
2023-04-02T03:13:02.623Z,99364.12
2023-04-02T03:16:25.301Z,99390.38
2023-04-02T03:20:06.418Z,99386.38
2023-04-02T03:23:20.646Z,99391.31
2023-04-02T03:26:58.953Z,99390.50
2023-04-02T03:30:04.518Z,99395.03
2023-04-02T03:33:40.959Z,99390.38
2023-04-02T03:37:22.198Z,99386.84
2023-04-02T03:41:03.533Z,99389.94
2023-04-02T03:44:19.622Z,99390.22
2023-04-02T03:47:44.072Z,99382.69
2023-04-02T03:50:53.702Z,99390.50
2023-04-02T03:53:56.678Z,99397.88
2023-04-02T03:57:00.235Z,99391.50
2023-04-02T04:00:17.476Z,99368.41
2023-04-02T04:03:41.141Z,99361.91
2023-04-02T04:06:46.751Z,99383.50
2023-04-02T04:09:53.476Z,99378.09
2023-04-02T04:13:03.135Z,99405.59
2023-04-02T04:16:16.864Z,99384.75
2023-04-02T04:19:32.638Z,99390.25
2023-04-02T04:22:35.729Z,99418.56
2023-04-02T04:25:40.167Z,99392.72
2023-04-02T04:28:47.598Z,99415.81
2023-04-02T04:31:55.331Z,99411.03
2023-04-02T04:35:21.746Z,99415.81
2023-04-02T04:38:34.973Z,99403.72
2023-04-02T04:41:40.442Z,99434.56
2023-04-02T04:44:58.998Z,99412.47
2023-04-02T04:48:10.257Z,99410.84
2023-04-02T04:51:27.924Z,99439.44
2023-04-02T04:54:31.754Z,99425.94
2023-04-02T04:57:38.088Z,99427.63
2023-04-02T05:01:10.602Z,99433.06
2023-04-02T05:04:34.716Z,99423.53
2023-04-02T05:07:47.988Z,99430.37
2023-04-02T05:11:20.005Z,99405.25
2023-04-02T05:14:35.654Z,99414.75
2023-04-02T05:17:53.086Z,99432.78
2023-04-02T05:20:58.795Z,99440.34
2023-04-02T05:24:06.913Z,99454.63
2023-04-02T05:27:23.207Z,99448.94
2023-04-02T05:30:42.522Z,99452.69
2023-04-02T05:33:47.620Z,99428.50
2023-04-02T05:36:50.557Z,99460.91
2023-04-02T05:39:57.048Z,99438.72
2023-04-02T05:43:02.413Z,99436.81
2023-04-02T05:46:17.641Z,99442.25
2023-04-02T05:49:26.703Z,99450.84
2023-04-02T05:52:34.023Z,99459.37
2023-04-02T05:55:40.953Z,99479.94
2023-04-02T05:58:48.196Z,99455.75
2023-04-02T06:02:31.172Z,99481.50
2023-04-02T06:05:40.023Z,99484.53
2023-04-02T06:08:51.457Z,99488.28
2023-04-02T06:12:14.369Z,99461.44
2023-04-02T06:15:19.313Z,99490.66
2023-04-02T06:18:31.845Z,99467.13
2023-04-02T06:21:34.647Z,99466.66
2023-04-02T06:24:41.157Z,99464.88
2023-04-02T06:27:47.171Z,99492.91
2023-04-02T06:30:54.687Z,99484.41
2023-04-02T06:33:57.642Z,99479.38
2023-04-02T06:37:05.473Z,99480.72
2023-04-02T06:40:40.815Z,99500.06
2023-04-02T06:43:54.146Z,99507.84
2023-04-02T06:47:00.293Z,99496.56
2023-04-02T06:50:36.034Z,99480.25
2023-04-02T06:53:48.106Z,99513.75
2023-04-02T06:56:53.307Z,99513.87
2023-04-02T06:59:56.511Z,99507.69
2023-04-02T07:03:01.763Z,99484.56
2023-04-02T07:06:04.529Z,99504.56
2023-04-02T07:09:08.174Z,99517.59
2023-04-02T07:12:12.867Z,99502.38
2023-04-02T07:15:17.553Z,99492.63
2023-04-02T07:18:31.668Z,99499.19
2023-04-02T07:21:34.574Z,99511.22
2023-04-02T07:24:37.133Z,99516.91
2023-04-02T07:27:39.717Z,99524.88
2023-04-02T07:30:42.353Z,99532.78
2023-04-02T07:33:45.678Z,99522.91
2023-04-02T07:36:49.224Z,99544.19
2023-04-02T07:39:51.942Z,99542.09
2023-04-02T07:42:54.229Z,99544.59
2023-04-02T07:45:56.887Z,99544.37
2023-04-02T07:48:59.192Z,99549.09
2023-04-02T07:52:02.031Z,99547.78
2023-04-02T07:55:04.818Z,99556.03
2023-04-02T07:58:10.884Z,99562.00
2023-04-02T08:01:24.078Z,99566.25
2023-04-02T08:04:26.673Z,99555.53
2023-04-02T08:07:28.997Z,99555.50
2023-04-02T08:10:31.852Z,99567.56
2023-04-02T08:13:34.462Z,99546.19
2023-04-02T08:16:48.129Z,99556.59
2023-04-02T08:19:55.045Z,99563.38
2023-04-02T08:22:58.287Z,99571.38
2023-04-02T08:26:00.939Z,99575.34
2023-04-02T08:29:08.966Z,99591.31
2023-04-02T08:32:15.864Z,99584.13
2023-04-02T08:35:18.657Z,99571.47
2023-04-02T08:38:22.656Z,99538.03
2023-04-02T08:41:32.251Z,99578.47
2023-04-02T08:44:55.995Z,99576.44
2023-04-02T08:48:00.066Z,99588.47
2023-04-02T08:51:05.038Z,99589.47
2023-04-02T08:54:27.841Z,99569.03
2023-04-02T08:57:49.958Z,99586.59
2023-04-02T09:00:55.522Z,99595.94
2023-04-02T09:03:59.177Z,99602.44
2023-04-02T09:07:02.116Z,99596.50
2023-04-02T09:10:05.416Z,99598.06
2023-04-02T09:13:20.633Z,99589.91
2023-04-02T09:16:36.880Z,99605.97
2023-04-02T09:19:44.560Z,99589.91
2023-04-02T09:22:51.079Z,99588.91
2023-04-02T09:26:03.584Z,99587.41
2023-04-02T09:29:12.627Z,99603.75
2023-04-02T09:32:34.036Z,99603.03
2023-04-02T09:35:51.493Z,99615.22
2023-04-02T09:39:06.933Z,99625.69
2023-04-02T09:42:31.240Z,99613.13
2023-04-02T09:45:34.171Z,99640.38
2023-04-02T09:48:55.662Z,99634.91
2023-04-02T09:52:29.564Z,99609.53
2023-04-02T09:55:32.315Z,99637.44
2023-04-02T09:58:34.961Z,99627.06
2023-04-02T10:01:42.682Z,99629.47
2023-04-02T10:04:48.426Z,99624.69
2023-04-02T10:07:55.583Z,99633.47
2023-04-02T10:11:01.917Z,99621.56
2023-04-02T10:14:21.682Z,99636.16
2023-04-02T10:17:32.869Z,99623.03
2023-04-02T10:20:50.442Z,99607.13
2023-04-02T10:23:55.531Z,99629.38
2023-04-02T10:27:02.565Z,99615.09
2023-04-02T10:30:30.679Z,99611.94
2023-04-02T10:33:37.692Z,99624.56
2023-04-02T10:36:49.319Z,99610.28
2023-04-02T10:40:10.522Z,99629.69
2023-04-02T10:43:50.903Z,99616.94
2023-04-02T10:47:33.870Z,99616.06
2023-04-02T10:50:44.895Z,99615.06
2023-04-02T10:54:03.134Z,99593.09
2023-04-02T10:57:14.614Z,99594.22
2023-04-02T11:00:27.883Z,99624.34
2023-04-02T11:03:41.676Z,99622.56
2023-04-02T11:06:50.371Z,99606.44
2023-04-02T11:09:57.144Z,99616.88
2023-04-02T11:13:18.497Z,99621.50
2023-04-02T11:16:21.748Z,99619.78
2023-04-02T11:19:29.237Z,99595.19
2023-04-02T11:22:31.915Z,99619.97
2023-04-02T11:25:34.599Z,99595.44
2023-04-02T11:28:37.414Z,99578.09
2023-04-02T11:31:39.846Z,99607.06
2023-04-02T11:34:43.057Z,99585.78
2023-04-02T11:37:46.140Z,99608.72
2023-04-02T11:40:52.090Z,99601.75
2023-04-02T11:44:01.432Z,99598.97
2023-04-02T11:47:19.372Z,99594.81
2023-04-02T11:50:43.002Z,99606.78
2023-04-02T11:53:45.905Z,99585.31
2023-04-02T11:56:57.070Z,99599.00
2023-04-02T12:00:13.360Z,99580.53
2023-04-02T12:03:37.322Z,99597.22
2023-04-02T12:06:54.894Z,99596.03
2023-04-02T12:10:00.841Z,99573.87
2023-04-02T12:13:03.223Z,99591.50
2023-04-02T12:16:13.365Z,99588.34
2023-04-02T12:19:17.259Z,99588.00
2023-04-02T12:22:27.793Z,99581.78
2023-04-02T12:25:40.204Z,99564.72
2023-04-02T12:28:46.469Z,99553.75
2023-04-02T12:31:49.002Z,99578.50
2023-04-02T12:34:54.416Z,99556.00
2023-04-02T12:37:57.997Z,99552.47
2023-04-02T12:41:03.730Z,99554.34
2023-04-02T12:44:15.501Z,99568.88
2023-04-02T12:47:18.215Z,99560.47
2023-04-02T12:50:22.579Z,99563.16
2023-04-02T12:53:40.332Z,99549.97
2023-04-02T12:56:43.097Z,99562.62
2023-04-02T12:59:45.845Z,99559.59
2023-04-02T13:03:21.407Z,99564.56
2023-04-02T13:06:24.717Z,99554.25
2023-04-02T13:09:38.652Z,99541.59
2023-04-02T13:12:41.708Z,99566.13
2023-04-02T13:15:44.172Z,99540.91
2023-04-02T13:18:49.115Z,99566.94
2023-04-02T13:21:53.039Z,99563.84
2023-04-02T13:24:56.054Z,99541.66
2023-04-02T13:27:58.943Z,99548.91
2023-04-02T13:31:01.588Z,99573.19
2023-04-02T13:34:03.945Z,99560.44
2023-04-02T13:37:06.602Z,99543.72
2023-04-02T13:40:13.732Z,99561.91
2023-04-02T13:43:19.035Z,99565.47
2023-04-02T13:46:27.753Z,99567.81
2023-04-02T13:49:31.706Z,99572.56
2023-04-02T13:52:34.057Z,99573.25
2023-04-02T13:55:42.483Z,99544.84
2023-04-02T13:58:46.082Z,99569.56
2023-04-02T14:01:51.648Z,99563.31
2023-04-02T14:05:33.200Z,99565.34
2023-04-02T14:09:15.675Z,99562.81
2023-04-02T14:12:36.728Z,99563.56
2023-04-02T14:15:48.129Z,99558.81
2023-04-02T14:19:07.424Z,99554.94
2023-04-02T14:22:32.324Z,99563.00
2023-04-02T14:25:41.816Z,99549.53
2023-04-02T14:29:29.536Z,99560.78
2023-04-02T14:32:46.326Z,99570.97
2023-04-02T14:35:54.178Z,99569.13
2023-04-02T14:39:18.489Z,99555.81
2023-04-02T14:42:58.212Z,99582.50
2023-04-02T14:46:04.117Z,99591.72
2023-04-02T14:49:28.983Z,99615.66
2023-04-02T14:52:35.097Z,99616.91
2023-04-02T14:55:43.659Z,99621.44
2023-04-02T14:58:53.422Z,99600.84
2023-04-02T15:02:02.411Z,99628.72
2023-04-02T15:05:36.153Z,99623.97
2023-04-02T15:09:09.473Z,99642.94
2023-04-02T15:12:31.042Z,99657.44
2023-04-02T15:15:44.376Z,99638.44
2023-04-02T15:18:52.088Z,99671.66
2023-04-02T15:21:57.110Z,99666.16
2023-04-02T15:25:05.678Z,99685.31
2023-04-02T15:28:26.594Z,99721.50
2023-04-02T15:31:29.413Z,99688.97
2023-04-02T15:34:45.992Z,99708.78
2023-04-02T15:38:21.830Z,99700.28
2023-04-02T15:41:39.890Z,99708.91
2023-04-02T15:45:11.308Z,99713.50
2023-04-02T15:48:35.582Z,99706.06
2023-04-02T15:52:00.656Z,99700.91
2023-04-02T15:55:27.979Z,99692.84
2023-04-02T15:59:01.909Z,99688.16
2023-04-02T16:02:21.034Z,99693.44
2023-04-02T16:05:54.434Z,99691.13
2023-04-02T16:09:07.563Z,99681.75
2023-04-02T16:12:20.021Z,99657.75
2023-04-02T16:15:36.247Z,99674.41
2023-04-02T16:18:49.909Z,99674.06
2023-04-02T16:22:23.782Z,99681.97
2023-04-02T16:25:29.609Z,99690.44
2023-04-02T16:29:04.383Z,99668.50
2023-04-02T16:32:30.415Z,99697.16
2023-04-02T16:35:43.512Z,99706.94
2023-04-02T16:39:14.098Z,99709.94
2023-04-02T16:42:58.093Z,99706.56
2023-04-02T16:46:38.225Z,99703.97
2023-04-02T16:49:50.202Z,99732.84
2023-04-02T16:53:05.519Z,99735.59
2023-04-02T16:56:10.769Z,99744.00
2023-04-02T16:59:22.633Z,99749.59
2023-04-02T17:03:19.278Z,99741.63
2023-04-02T17:06:47.840Z,99749.78
2023-04-02T17:09:51.697Z,99752.31
2023-04-02T17:13:12.954Z,99765.84
2023-04-02T17:16:19.935Z,99770.00
2023-04-02T17:19:26.201Z,99753.88
2023-04-02T17:22:31.653Z,99767.25
2023-04-02T17:25:39.704Z,99774.69
2023-04-02T17:28:44.098Z,99767.00
2023-04-02T17:31:47.170Z,99757.25
2023-04-02T17:34:49.699Z,99784.31
2023-04-02T17:38:12.813Z,99777.56
2023-04-02T17:41:53.576Z,99794.91
2023-04-02T17:45:24.574Z,99796.44
2023-04-02T17:48:44.809Z,99806.31
2023-04-02T17:52:26.345Z,99783.09
2023-04-02T17:55:39.937Z,99801.44
2023-04-02T17:59:20.984Z,99807.41
2023-04-02T18:02:52.626Z,99793.53
2023-04-02T18:06:09.777Z,99821.69
2023-04-02T18:09:29.152Z,99800.72
2023-04-02T18:13:06.960Z,99815.75
2023-04-02T18:16:37.918Z,99845.88
2023-04-02T18:20:02.429Z,99852.53
2023-04-02T18:23:19.767Z,99856.72
2023-04-02T18:26:43.632Z,99868.34
2023-04-02T18:29:51.680Z,99877.25
2023-04-02T18:33:05.292Z,99874.75
2023-04-02T18:36:19.699Z,99854.56
2023-04-02T18:39:39.871Z,99886.16
2023-04-02T18:43:00.961Z,99868.91
2023-04-02T18:46:28.087Z,99898.66
2023-04-02T18:49:46.130Z,99875.59
2023-04-02T18:52:50.354Z,99901.44
2023-04-02T18:56:04.083Z,99863.50
2023-04-02T18:59:35.769Z,99911.31
2023-04-02T19:02:50.564Z,99918.34
2023-04-02T19:05:55.940Z,99894.16
2023-04-02T19:09:06.830Z,99923.06
2023-04-02T19:12:19.977Z,99925.81
2023-04-02T19:15:30.133Z,99932.59
2023-04-02T19:18:41.572Z,99931.31
2023-04-02T19:22:05.569Z,99943.41
2023-04-02T19:25:35.805Z,99932.00
2023-04-02T19:28:58.870Z,99951.31
2023-04-02T19:32:04.648Z,99950.28
2023-04-02T19:35:14.961Z,99960.72
2023-04-02T19:38:39.042Z,99953.03
2023-04-02T19:41:49.508Z,99964.03
2023-04-02T19:44:54.136Z,99967.69
2023-04-02T19:47:58.941Z,99977.34
2023-04-02T19:51:01.684Z,99961.84
2023-04-02T19:54:04.396Z,99984.22
2023-04-02T19:57:07.220Z,99992.69
2023-04-02T20:00:16.791Z,99996.25
2023-04-02T20:03:19.569Z,100005.88
2023-04-02T20:06:22.433Z,100005.97
2023-04-02T20:09:25.493Z,99994.41
2023-04-02T20:12:27.870Z,99990.22
2023-04-02T20:15:30.766Z,99992.66
2023-04-02T20:18:33.625Z,100021.03
2023-04-02T20:21:38.691Z,100023.31
2023-04-02T20:24:42.638Z,100002.53
2023-04-02T20:27:46.158Z,100015.25
2023-04-02T20:30:50.259Z,100041.31
2023-04-02T20:33:57.721Z,100012.81
2023-04-02T20:37:00.588Z,100039.12
2023-04-02T20:40:03.944Z,100045.09
2023-04-02T20:43:06.353Z,100019.75
2023-04-02T20:46:12.282Z,100026.87
2023-04-02T20:49:15.634Z,100062.94
2023-04-02T20:52:18.243Z,100069.78
2023-04-02T20:55:20.559Z,100073.44
2023-04-02T20:58:23.214Z,100076.41
2023-04-02T21:01:28.561Z,100086.12
2023-04-02T21:04:31.366Z,100071.97
2023-04-02T21:07:34.461Z,100096.94
2023-04-02T21:10:37.399Z,100094.91
2023-04-02T21:13:42.476Z,100076.00
2023-04-02T21:16:45.359Z,100107.12
2023-04-02T21:19:47.729Z,100087.00
2023-04-02T21:22:50.634Z,100100.97
2023-04-02T21:26:00.745Z,100080.44
2023-04-02T21:29:04.288Z,100109.81
2023-04-02T21:32:20.361Z,100096.75
2023-04-02T21:35:24.097Z,100094.91
2023-04-02T21:38:26.516Z,100099.50
2023-04-02T21:41:41.195Z,100123.03
2023-04-02T21:44:43.598Z,100108.41
2023-04-02T21:47:46.271Z,100119.63
2023-04-02T21:50:48.600Z,100133.16
2023-04-02T21:53:51.512Z,100140.66
2023-04-02T21:56:53.856Z,100138.78
2023-04-02T21:59:57.167Z,100148.44
2023-04-02T22:02:59.680Z,100116.50
2023-04-02T22:06:02.362Z,100143.34
2023-04-02T22:09:09.547Z,100165.44
2023-04-02T22:12:12.521Z,100172.97
2023-04-02T22:15:15.349Z,100170.22
2023-04-02T22:18:17.962Z,100121.87
2023-04-02T22:21:20.532Z,100167.47
2023-04-02T22:24:23.228Z,100167.94
2023-04-02T22:27:25.661Z,100178.50
2023-04-02T22:30:29.983Z,100150.78
2023-04-02T22:33:32.859Z,100175.44
2023-04-02T22:36:35.848Z,100181.28
2023-04-02T22:39:38.177Z,100152.78
2023-04-02T22:42:40.935Z,100194.75
2023-04-02T22:45:47.373Z,100192.47
2023-04-02T22:48:50.500Z,100171.66
2023-04-02T22:51:53.411Z,100207.50
2023-04-02T22:54:56.125Z,100184.59
2023-04-02T22:57:58.420Z,100170.03
2023-04-02T23:01:07.209Z,100203.88
2023-04-02T23:04:09.582Z,100193.91
2023-04-02T23:07:12.169Z,100204.19
2023-04-02T23:10:14.667Z,100181.66
2023-04-02T23:13:17.275Z,100213.44
2023-04-02T23:16:20.492Z,100209.25
2023-04-02T23:19:23.159Z,100212.31
2023-04-02T23:22:25.475Z,100220.22
2023-04-02T23:25:28.075Z,100218.75
2023-04-02T23:28:30.810Z,100193.56
2023-04-02T23:31:33.498Z,100224.75
2023-04-02T23:34:36.038Z,100227.16
2023-04-02T23:37:38.841Z,100238.47
2023-04-02T23:40:41.314Z,100202.63
2023-04-02T23:43:44.237Z,100229.72
2023-04-02T23:46:46.712Z,100211.25
2023-04-02T23:49:49.432Z,100232.06
2023-04-02T23:52:51.818Z,100193.34
2023-04-02T23:55:54.516Z,100238.16
2023-04-02T23:58:56.806Z,100241.41
